createdAt,value
2017-05-22T00:01:13.619Z,60.70
2017-05-22T00:03:41.847Z,61.90
2017-05-22T00:06:10.162Z,63.20
2017-05-22T00:08:37.620Z,63.00
2017-05-22T00:11:05.894Z,64.80
2017-05-22T00:13:34.137Z,65.50
2017-05-22T00:16:02.432Z,66.10
2017-05-22T00:18:30.723Z,66.20
2017-05-22T00:20:58.966Z,66.00
2017-05-22T00:23:27.214Z,66.40
2017-05-22T00:25:55.458Z,66.70
2017-05-22T00:28:23.709Z,67.00
2017-05-22T00:30:51.945Z,66.90
2017-05-22T00:33:20.259Z,67.10
2017-05-22T00:35:48.511Z,67.50
2017-05-22T00:38:15.989Z,67.50
2017-05-22T00:40:44.230Z,66.70
2017-05-22T00:43:12.560Z,66.20
2017-05-22T00:45:40.788Z,66.10
2017-05-22T00:48:08.247Z,66.10
2017-05-22T00:50:36.561Z,65.70
2017-05-22T00:53:04.805Z,65.80
2017-05-22T00:55:33.061Z,66.30
2017-05-22T00:58:01.312Z,67.00
2017-05-22T01:00:29.560Z,68.60
2017-05-22T01:02:57.793Z,69.90
2017-05-22T01:05:26.033Z,67.90
2017-05-22T01:07:54.263Z,69.40
2017-05-22T01:10:22.499Z,71.50
2017-05-22T01:12:50.732Z,72.30
2017-05-22T01:15:19.014Z,74.00
2017-05-22T01:17:47.236Z,76.00
2017-05-22T01:20:15.483Z,76.10
2017-05-22T01:22:43.708Z,77.10
2017-05-22T01:25:11.938Z,77.00
2017-05-22T01:27:40.186Z,77.80
2017-05-22T01:30:08.437Z,77.80
2017-05-22T01:32:36.686Z,78.90
2017-05-22T01:35:05.013Z,78.60
2017-05-22T01:37:33.257Z,78.50
2017-05-22T01:40:01.511Z,79.00
2017-05-22T01:42:29.828Z,78.90
2017-05-22T01:44:57.310Z,78.90
2017-05-22T01:47:25.559Z,77.60
2017-05-22T01:49:53.807Z,76.50
2017-05-22T01:52:22.125Z,75.20
2017-05-22T01:54:50.373Z,76.90
2017-05-22T01:57:18.613Z,75.90
2017-05-22T01:59:46.945Z,75.70
2017-05-22T02:02:15.230Z,76.30
2017-05-22T02:04:43.473Z,76.50
2017-05-22T02:07:11.785Z,76.80
2017-05-22T02:09:40.054Z,76.30
2017-05-22T02:12:08.310Z,74.10
2017-05-22T02:14:36.557Z,73.70
2017-05-22T02:17:04.018Z,73.70
2017-05-22T02:19:32.251Z,74.40
2017-05-22T02:21:59.724Z,74.40
2017-05-22T02:24:27.965Z,75.90
2017-05-22T02:26:56.339Z,77.90
2017-05-22T02:29:24.575Z,77.20
2017-05-22T02:31:52.888Z,78.30
2017-05-22T02:34:21.128Z,78.80
2017-05-22T02:36:49.454Z,79.60
2017-05-22T02:39:17.684Z,80.30
2017-05-22T02:41:45.998Z,80.50
2017-05-22T02:44:14.233Z,80.90
2017-05-22T02:46:42.469Z,80.70
2017-05-22T02:49:10.703Z,81.00
2017-05-22T02:51:39.001Z,81.30
2017-05-22T02:54:07.359Z,81.40
2017-05-22T02:56:35.649Z,82.20
2017-05-22T02:59:03.907Z,81.60
2017-05-22T03:01:32.134Z,81.70
2017-05-22T03:04:00.368Z,82.00
2017-05-22T03:06:28.611Z,82.20
2017-05-22T03:08:56.843Z,81.50
2017-05-22T03:11:25.078Z,81.50
2017-05-22T03:13:53.327Z,81.60
2017-05-22T03:16:21.577Z,82.40
2017-05-22T03:18:49.931Z,82.40
2017-05-22T03:21:18.195Z,82.60
2017-05-22T03:23:46.472Z,82.40
2017-05-22T03:26:14.714Z,82.00
2017-05-22T03:28:42.944Z,82.10
2017-05-22T03:31:10.414Z,82.10
2017-05-22T03:33:38.658Z,82.10
2017-05-22T03:36:06.900Z,81.70
2017-05-22T03:38:35.147Z,82.20
2017-05-22T03:41:03.385Z,80.70
2017-05-22T03:43:31.642Z,81.10
2017-05-22T03:45:59.881Z,79.60
2017-05-22T03:48:28.152Z,78.70
2017-05-22T03:50:56.394Z,78.80
2017-05-22T03:53:24.641Z,77.90
2017-05-22T03:55:52.896Z,76.50
2017-05-22T03:58:21.208Z,76.90
2017-05-22T04:00:49.458Z,76.50
2017-05-22T04:03:17.698Z,76.50
2017-05-22T04:05:45.932Z,75.70
2017-05-22T04:08:13.411Z,75.80
2017-05-22T04:10:41.639Z,76.40
2017-05-22T04:13:09.887Z,76.50
2017-05-22T04:15:38.297Z,76.10
2017-05-22T04:18:06.557Z,76.10
2017-05-22T04:20:34.810Z,75.40
2017-05-22T04:23:02.284Z,75.40
2017-05-22T04:25:30.549Z,74.90
2017-05-22T04:27:58.876Z,74.00
2017-05-22T04:30:27.107Z,74.00
2017-05-22T04:32:55.430Z,73.90
2017-05-22T04:35:22.900Z,73.80
2017-05-22T04:37:51.161Z,74.30
2017-05-22T04:40:19.391Z,74.70
2017-05-22T04:42:47.624Z,73.40
2017-05-22T04:45:15.875Z,73.30
2017-05-22T04:47:44.134Z,74.10
2017-05-22T04:50:12.363Z,74.20
2017-05-22T04:52:40.617Z,72.70
2017-05-22T04:55:08.876Z,72.80
2017-05-22T04:57:37.141Z,73.00
2017-05-22T05:00:05.371Z,71.70
2017-05-22T05:02:33.623Z,72.40
2017-05-22T05:05:01.864Z,70.90
2017-05-22T05:07:30.169Z,72.30
2017-05-22T05:09:58.415Z,71.70
2017-05-22T05:12:26.703Z,71.30
2017-05-22T05:14:54.933Z,70.10
2017-05-22T05:17:23.165Z,69.40
2017-05-22T05:19:51.418Z,68.10
2017-05-22T05:22:19.717Z,64.60
2017-05-22T05:24:47.969Z,63.10
2017-05-22T05:27:16.209Z,64.10
2017-05-22T05:29:44.539Z,61.80
2017-05-22T05:32:12.781Z,61.00
2017-05-22T05:34:41.021Z,59.30
2017-05-22T05:37:09.370Z,59.10
2017-05-22T05:39:37.646Z,60.30
2017-05-22T05:42:05.882Z,61.80
2017-05-22T05:44:34.116Z,58.20
2017-05-22T05:47:02.357Z,53.40
2017-05-22T05:49:30.638Z,53.70
2017-05-22T05:51:58.131Z,53.80
2017-05-22T05:54:26.475Z,55.00
2017-05-22T05:56:54.711Z,57.00
2017-05-22T05:59:23.026Z,57.40
2017-05-22T06:01:51.296Z,55.60
2017-05-22T06:04:19.545Z,55.00
2017-05-22T06:06:47.858Z,54.80
2017-05-22T06:09:16.086Z,53.60
2017-05-22T06:11:44.395Z,49.90
2017-05-22T06:14:12.690Z,49.40
2017-05-22T06:16:40.938Z,46.50
2017-05-22T06:19:09.161Z,44.80
2017-05-22T06:21:37.398Z,44.00
2017-05-22T06:24:05.636Z,40.70
2017-05-22T06:26:33.877Z,40.50
2017-05-22T06:29:02.237Z,43.10
2017-05-22T06:31:30.467Z,40.20
2017-05-22T06:33:58.718Z,43.00
2017-05-22T06:36:26.951Z,46.20
2017-05-22T06:38:55.188Z,48.70
2017-05-22T06:41:23.411Z,50.60
2017-05-22T06:43:51.686Z,51.80
2017-05-22T06:46:19.911Z,53.30
2017-05-22T06:48:48.150Z,54.90
2017-05-22T06:51:16.371Z,55.40
2017-05-22T06:53:44.623Z,55.00
2017-05-22T06:56:12.948Z,55.00
2017-05-22T06:58:41.192Z,55.70
2017-05-22T07:01:09.437Z,55.40
2017-05-22T07:03:37.682Z,54.60
2017-05-22T07:06:05.951Z,54.80
2017-05-22T07:08:34.246Z,55.20
2017-05-22T07:11:02.501Z,57.00
2017-05-22T07:13:30.746Z,55.80
2017-05-22T07:15:59.066Z,55.10
2017-05-22T07:18:27.321Z,58.70
2017-05-22T07:20:55.569Z,57.00
2017-05-22T07:23:23.809Z,55.50
2017-05-22T07:25:52.061Z,55.20
2017-05-22T07:28:20.341Z,54.70
2017-05-22T07:30:48.570Z,55.80
2017-05-22T07:33:16.891Z,53.80
2017-05-22T07:35:45.126Z,54.40
2017-05-22T07:38:13.367Z,53.10
2017-05-22T07:40:41.609Z,52.90
2017-05-22T07:43:09.863Z,56.10
2017-05-22T07:45:38.110Z,54.40
2017-05-22T07:48:06.312Z,52.00
2017-05-22T07:50:34.575Z,53.30
2017-05-22T07:53:02.814Z,53.10
2017-05-22T07:55:31.062Z,53.20
2017-05-22T07:57:59.296Z,51.20
2017-05-22T08:00:27.522Z,52.10
2017-05-22T08:02:55.766Z,51.90
2017-05-22T08:05:24.010Z,52.30
2017-05-22T08:07:52.246Z,52.10
2017-05-22T08:10:20.494Z,52.00
2017-05-22T08:12:48.781Z,52.50
2017-05-22T08:15:17.051Z,52.30
2017-05-22T08:17:45.337Z,52.00
2017-05-22T08:20:13.573Z,51.30
2017-05-22T08:22:41.814Z,52.10
2017-05-22T08:25:10.059Z,51.20
2017-05-22T08:27:38.292Z,51.10
2017-05-22T08:30:06.525Z,51.10
2017-05-22T08:32:34.773Z,53.20
2017-05-22T08:35:03.066Z,52.30
2017-05-22T08:37:31.293Z,52.00
2017-05-22T08:39:59.529Z,50.90
2017-05-22T08:42:27.794Z,52.00
2017-05-22T08:44:56.017Z,51.30
2017-05-22T08:47:24.341Z,51.10
2017-05-22T08:49:52.581Z,52.10
2017-05-22T08:52:20.857Z,50.90
2017-05-22T08:54:49.158Z,51.50
2017-05-22T08:57:17.439Z,50.90
2017-05-22T08:59:45.667Z,51.20
2017-05-22T09:02:13.887Z,50.60
2017-05-22T09:04:42.139Z,51.80
2017-05-22T09:07:10.449Z,51.00
2017-05-22T09:09:38.726Z,49.60
2017-05-22T09:12:06.955Z,50.20
2017-05-22T09:14:35.259Z,50.00
2017-05-22T09:17:03.501Z,50.40
2017-05-22T09:19:31.727Z,50.40
2017-05-22T09:22:00.893Z,51.00
2017-05-22T09:24:29.162Z,49.90
2017-05-22T09:26:57.459Z,50.70
2017-05-22T09:29:25.706Z,50.50
2017-05-22T09:31:53.928Z,48.80
2017-05-22T09:34:22.177Z,48.10
2017-05-22T09:36:50.398Z,48.60
2017-05-22T09:39:18.734Z,48.40
2017-05-22T09:41:46.977Z,48.60
2017-05-22T09:44:15.295Z,49.00
2017-05-22T09:46:43.569Z,47.00
2017-05-22T09:49:11.849Z,45.90
2017-05-22T09:51:40.114Z,46.40
2017-05-22T09:54:08.359Z,48.90
2017-05-22T09:56:35.837Z,48.90
2017-05-22T09:59:04.131Z,47.00
2017-05-22T10:01:32.401Z,47.80
2017-05-22T10:04:00.667Z,46.70
2017-05-22T10:06:28.951Z,47.00
2017-05-22T10:08:57.189Z,46.30
2017-05-22T10:11:25.415Z,46.60
2017-05-22T10:13:53.686Z,46.50
2017-05-22T10:16:21.957Z,47.80
2017-05-22T10:18:50.197Z,48.30
2017-05-22T10:21:18.444Z,46.50
2017-05-22T10:23:46.663Z,45.60
2017-05-22T10:26:14.910Z,46.20
2017-05-22T10:28:43.227Z,46.00
2017-05-22T10:31:11.499Z,46.50
2017-05-22T10:33:39.747Z,46.40
2017-05-22T10:36:07.967Z,46.10
2017-05-22T10:38:36.320Z,45.30
2017-05-22T10:41:04.562Z,46.30
2017-05-22T10:43:32.797Z,44.50
2017-05-22T10:46:01.037Z,43.10
2017-05-22T10:48:29.379Z,45.00
2017-05-22T10:50:57.713Z,44.80
2017-05-22T10:53:25.943Z,45.30
2017-05-22T10:55:54.182Z,43.40
2017-05-22T10:58:22.443Z,43.30
2017-05-22T11:00:50.702Z,44.20
2017-05-22T11:03:18.931Z,44.70
2017-05-22T11:05:47.178Z,44.00
2017-05-22T11:08:15.421Z,44.00
2017-05-22T11:10:43.710Z,43.90
2017-05-22T11:13:11.989Z,45.10
2017-05-22T11:15:40.267Z,43.90
2017-05-22T11:18:08.494Z,44.50
2017-05-22T11:20:36.743Z,44.90
2017-05-22T11:23:04.964Z,43.30
2017-05-22T11:25:33.207Z,43.80
2017-05-22T11:28:01.427Z,44.80
2017-05-22T11:30:29.673Z,46.10
2017-05-22T11:32:57.994Z,44.10
2017-05-22T11:35:26.217Z,43.10
2017-05-22T11:37:54.460Z,47.20
2017-05-22T11:40:22.686Z,43.10
2017-05-22T11:42:50.919Z,42.70
2017-05-22T11:45:19.153Z,43.40
2017-05-22T11:47:47.414Z,42.60
2017-05-22T11:50:15.722Z,43.30
2017-05-22T11:52:43.958Z,43.40
2017-05-22T11:55:12.205Z,44.20
2017-05-22T11:57:40.428Z,44.60
2017-05-22T12:00:08.655Z,44.30
2017-05-22T12:02:36.886Z,44.00
2017-05-22T12:05:05.122Z,43.40
2017-05-22T12:07:33.436Z,42.50
2017-05-22T12:10:00.913Z,42.50
2017-05-22T12:12:29.174Z,47.60
2017-05-22T12:14:57.426Z,45.90
2017-05-22T12:17:25.715Z,44.60
2017-05-22T12:19:53.982Z,44.40
2017-05-22T12:22:22.227Z,42.10
2017-05-22T12:24:50.463Z,42.90
2017-05-22T12:27:18.714Z,42.80
2017-05-22T12:29:46.944Z,42.90
2017-05-22T12:32:15.270Z,41.00
2017-05-22T12:34:43.499Z,40.70
2017-05-22T12:37:11.728Z,43.10
2017-05-22T12:39:39.983Z,43.90
2017-05-22T12:42:08.223Z,44.90
2017-05-22T12:44:36.543Z,43.40
2017-05-22T12:47:04.821Z,42.90
2017-05-22T12:49:33.051Z,43.60
2017-05-22T12:52:01.681Z,43.60
2017-05-22T12:54:29.911Z,40.80
2017-05-22T12:56:58.151Z,41.50
2017-05-22T12:59:26.409Z,41.30
2017-05-22T13:01:54.649Z,40.30
2017-05-22T13:04:22.883Z,41.00
2017-05-22T13:06:51.115Z,39.60
2017-05-22T13:09:19.346Z,38.80
2017-05-22T13:11:47.586Z,39.90
2017-05-22T13:14:15.834Z,41.80
2017-05-22T13:16:44.060Z,43.40
2017-05-22T13:19:12.299Z,42.90
2017-05-22T13:21:40.538Z,43.80
2017-05-22T13:24:08.779Z,41.90
2017-05-22T13:26:37.012Z,41.40
2017-05-22T13:29:05.281Z,42.00
2017-05-22T13:31:33.578Z,42.30
2017-05-22T13:34:01.825Z,43.40
2017-05-22T13:36:30.075Z,43.60
2017-05-22T13:38:58.299Z,42.50
2017-05-22T13:41:26.550Z,41.70
2017-05-22T13:43:54.791Z,41.30
2017-05-22T13:46:23.030Z,41.60
2017-05-22T13:48:51.274Z,41.80
2017-05-22T13:51:19.499Z,42.60
2017-05-22T13:53:47.737Z,41.90
2017-05-22T13:56:15.984Z,40.40
2017-05-22T13:58:44.212Z,41.20
2017-05-22T14:01:12.475Z,41.40
2017-05-22T14:03:40.725Z,41.60
2017-05-22T14:06:08.963Z,40.60
2017-05-22T14:08:37.210Z,40.70
2017-05-22T14:11:05.453Z,40.80
2017-05-22T14:13:33.702Z,40.70
2017-05-22T14:16:01.937Z,42.80
2017-05-22T14:18:30.179Z,40.40
2017-05-22T14:20:58.404Z,41.20
2017-05-22T14:23:26.645Z,41.70
2017-05-22T14:25:54.925Z,42.80
2017-05-22T14:28:23.166Z,41.30
2017-05-22T14:30:51.462Z,38.90
2017-05-22T14:33:19.716Z,40.40
2017-05-22T14:35:47.957Z,39.60
2017-05-22T14:38:16.196Z,41.50
2017-05-22T14:40:44.463Z,43.00
2017-05-22T14:43:12.706Z,43.40
2017-05-22T14:45:40.936Z,43.00
2017-05-22T14:48:09.189Z,42.80
2017-05-22T14:50:37.430Z,42.40
2017-05-22T14:53:05.673Z,42.20
2017-05-22T14:55:33.918Z,42.10
2017-05-22T14:58:02.198Z,41.40
2017-05-22T15:00:30.447Z,41.50
2017-05-22T15:02:58.753Z,43.60
2017-05-22T15:05:26.991Z,41.10
2017-05-22T15:07:55.220Z,42.10
2017-05-22T15:10:23.558Z,42.20
2017-05-22T15:12:51.790Z,42.40
2017-05-22T15:15:20.014Z,46.30
2017-05-22T15:17:48.259Z,41.80
2017-05-22T15:20:16.573Z,42.50
2017-05-22T15:22:44.138Z,42.40
2017-05-22T15:25:12.378Z,41.50
2017-05-22T15:27:40.603Z,41.10
2017-05-22T15:30:08.841Z,41.90
2017-05-22T15:32:36.318Z,41.80
2017-05-22T15:35:04.579Z,42.30
2017-05-22T15:37:32.821Z,41.50
2017-05-22T15:40:01.138Z,42.80
2017-05-22T15:42:29.393Z,41.80
2017-05-22T15:44:57.689Z,43.00
2017-05-22T15:47:25.972Z,42.20
2017-05-22T15:49:54.196Z,43.00
2017-05-22T15:52:21.680Z,43.00
2017-05-22T15:54:49.959Z,42.50
2017-05-22T15:57:18.236Z,43.20
2017-05-22T15:59:46.478Z,43.00
2017-05-22T16:02:14.787Z,42.50
2017-05-22T16:04:43.033Z,42.60
2017-05-22T16:07:11.273Z,43.20
2017-05-22T16:09:39.521Z,43.10
2017-05-22T16:12:07.766Z,43.90
2017-05-22T16:14:36.007Z,44.10
2017-05-22T16:17:04.248Z,43.30
2017-05-22T16:19:32.517Z,43.60
2017-05-22T16:22:00.744Z,44.30
2017-05-22T16:24:29.074Z,44.50
2017-05-22T16:26:57.313Z,45.80
2017-05-22T16:29:25.557Z,45.50
2017-05-22T16:31:53.793Z,45.20
2017-05-22T16:34:22.037Z,45.20
2017-05-22T16:36:50.346Z,44.90
2017-05-22T16:39:18.588Z,44.80
2017-05-22T16:41:46.837Z,44.20
2017-05-22T16:44:15.064Z,44.30
2017-05-22T16:46:43.314Z,44.60
2017-05-22T16:49:11.622Z,44.90
2017-05-22T16:51:39.884Z,45.70
2017-05-22T16:54:08.128Z,45.70
2017-05-22T16:56:36.365Z,45.20
2017-05-22T16:59:04.717Z,44.40
2017-05-22T17:01:32.957Z,45.10
2017-05-22T17:04:01.193Z,45.30
2017-05-22T17:06:29.429Z,44.10
2017-05-22T17:08:57.710Z,44.10
2017-05-22T17:11:25.958Z,43.20
2017-05-22T17:13:54.210Z,44.10
2017-05-22T17:16:22.445Z,44.70
2017-05-22T17:18:50.816Z,44.90
2017-05-22T17:21:19.102Z,45.10
2017-05-22T17:23:47.328Z,45.30
2017-05-22T17:26:15.572Z,45.20
2017-05-22T17:28:43.801Z,45.20
2017-05-22T17:31:12.041Z,45.20
2017-05-22T17:33:40.281Z,45.30
2017-05-22T17:36:08.524Z,46.10
2017-05-22T17:38:36.761Z,45.70
2017-05-22T17:41:05.085Z,46.30
2017-05-22T17:43:33.327Z,46.30
2017-05-22T17:46:01.670Z,46.70
2017-05-22T17:48:29.146Z,46.10
2017-05-22T17:50:57.393Z,47.20
2017-05-22T17:53:25.637Z,47.70
2017-05-22T17:55:53.874Z,47.90
2017-05-22T17:58:21.341Z,47.90
2017-05-22T18:00:49.665Z,48.50
2017-05-22T18:03:17.889Z,48.80
2017-05-22T18:05:46.120Z,48.20
2017-05-22T18:08:14.355Z,48.90
2017-05-22T18:10:42.651Z,48.90
2017-05-22T18:13:10.897Z,49.20
2017-05-22T18:15:39.218Z,49.30
2017-05-22T18:18:07.474Z,49.90
2017-05-22T18:20:35.765Z,50.00
2017-05-22T18:23:04.040Z,50.30
2017-05-22T18:25:32.282Z,50.40
2017-05-22T18:28:00.517Z,50.50
2017-05-22T18:30:28.859Z,50.60
2017-05-22T18:32:57.156Z,50.70
2017-05-22T18:35:25.393Z,50.90
2017-05-22T18:37:53.647Z,51.30
2017-05-22T18:40:21.881Z,51.30
2017-05-22T18:42:50.123Z,51.20
2017-05-22T18:45:18.370Z,51.60
2017-05-22T18:47:46.614Z,52.00
2017-05-22T18:50:14.868Z,52.30
2017-05-22T18:52:43.143Z,53.10
2017-05-22T18:55:11.390Z,54.00
2017-05-22T18:57:39.625Z,54.40
2017-05-22T19:00:07.873Z,54.50
2017-05-22T19:02:36.140Z,55.00
2017-05-22T19:05:04.421Z,54.80
2017-05-22T19:07:32.650Z,55.10
2017-05-22T19:10:00.880Z,55.40
2017-05-22T19:12:29.123Z,55.90
2017-05-22T19:14:57.424Z,56.20
2017-05-22T19:17:25.660Z,56.30
2017-05-22T19:19:53.160Z,56.30
2017-05-22T19:22:21.434Z,56.30
2017-05-22T19:24:49.663Z,56.20
2017-05-22T19:27:17.935Z,56.40
2017-05-22T19:29:46.184Z,56.40
2017-05-22T19:32:14.527Z,56.70
2017-05-22T19:34:42.769Z,57.10
2017-05-22T19:37:11.037Z,57.20
2017-05-22T19:39:39.319Z,57.30
2017-05-22T19:42:07.542Z,57.40
2017-05-22T19:44:35.809Z,57.80
2017-05-22T19:47:04.048Z,58.20
2017-05-22T19:49:32.326Z,58.20
2017-05-22T19:52:00.679Z,59.00
2017-05-22T19:54:28.929Z,59.70
2017-05-22T19:56:57.156Z,60.30
2017-05-22T19:59:25.394Z,60.60
2017-05-22T20:01:53.635Z,62.40
2017-05-22T20:04:21.388Z,62.40
2017-05-22T20:06:49.768Z,63.00
2017-05-22T20:09:18.026Z,63.90
2017-05-22T20:11:46.287Z,64.00
2017-05-22T20:14:14.602Z,64.10
2017-05-22T20:16:42.063Z,64.10
2017-05-22T20:19:10.308Z,65.60
2017-05-22T20:21:37.773Z,65.60
2017-05-22T20:24:06.011Z,67.70
2017-05-22T20:26:34.236Z,67.10
2017-05-22T20:29:02.477Z,67.00
2017-05-22T20:31:30.770Z,68.80
2017-05-22T20:33:59.069Z,68.20
2017-05-22T20:36:27.311Z,69.10
2017-05-22T20:38:55.558Z,68.10
2017-05-22T20:41:23.811Z,68.20
2017-05-22T20:43:52.085Z,66.70
2017-05-22T20:46:20.326Z,68.70
2017-05-22T20:48:48.560Z,68.30
2017-05-22T20:51:16.889Z,68.50
2017-05-22T20:53:45.163Z,68.10
2017-05-22T20:56:13.415Z,69.40
2017-05-22T20:58:41.718Z,68.10
2017-05-22T21:01:09.965Z,70.60
2017-05-22T21:03:38.206Z,69.90
2017-05-22T21:06:06.447Z,71.90
2017-05-22T21:08:34.691Z,72.60
2017-05-22T21:11:02.998Z,75.20
2017-05-22T21:13:31.274Z,74.80
2017-05-22T21:15:59.555Z,75.40
2017-05-22T21:18:27.822Z,74.20
2017-05-22T21:20:56.063Z,75.80
2017-05-22T21:23:24.314Z,74.60
2017-05-22T21:25:52.562Z,76.60
2017-05-22T21:28:20.914Z,76.80
2017-05-22T21:30:49.201Z,76.60
2017-05-22T21:33:17.479Z,76.80
2017-05-22T21:35:46.223Z,77.10
2017-05-22T21:38:14.493Z,78.10
2017-05-22T21:40:42.813Z,78.70
2017-05-22T21:43:11.073Z,79.00
2017-05-22T21:45:39.356Z,77.70
2017-05-22T21:48:07.616Z,78.50
2017-05-22T21:50:35.865Z,79.30
2017-05-22T21:53:04.191Z,80.00
2017-05-22T21:55:32.565Z,80.20
2017-05-22T21:58:00.822Z,79.90
2017-05-22T22:02:40.144Z,80.40
2017-05-22T22:05:08.406Z,80.80
2017-05-22T22:07:36.639Z,81.00
2017-05-22T22:10:04.918Z,81.10
2017-05-22T22:12:33.173Z,80.80
2017-05-22T22:15:01.419Z,81.00
2017-05-22T22:17:29.664Z,81.00
2017-05-22T22:19:58.027Z,81.50
2017-05-22T22:22:26.275Z,82.60
2017-05-22T22:24:54.610Z,82.30
2017-05-22T22:27:22.839Z,82.40
2017-05-22T22:29:51.111Z,82.50
2017-05-22T22:32:19.349Z,82.70
2017-05-22T22:34:47.560Z,82.00
2017-05-22T22:37:15.854Z,82.60
2017-05-22T22:39:44.118Z,82.80
2017-05-22T22:42:12.383Z,83.00
2017-05-22T22:44:40.623Z,83.00
2017-05-22T22:47:08.935Z,83.30
2017-05-22T22:49:37.177Z,83.00
2017-05-22T22:52:05.550Z,82.30
2017-05-22T22:54:33.862Z,82.80
2017-05-22T22:57:02.114Z,83.20
2017-05-22T22:59:30.417Z,83.20
2017-05-22T23:01:58.661Z,83.20
2017-05-22T23:04:26.910Z,83.10
2017-05-22T23:06:55.165Z,82.80
2017-05-22T23:09:23.413Z,82.70
2017-05-22T23:11:51.658Z,83.70
2017-05-22T23:14:19.913Z,83.00
2017-05-22T23:16:48.241Z,80.90
2017-05-22T23:19:16.475Z,83.10
2017-05-22T23:21:44.727Z,83.60
2017-05-22T23:24:12.973Z,83.70
2017-05-22T23:26:41.206Z,83.70
2017-05-22T23:29:09.460Z,84.20
2017-05-22T23:31:37.710Z,84.00
2017-05-22T23:34:05.963Z,83.20
2017-05-22T23:36:34.209Z,82.70
2017-05-22T23:39:02.464Z,83.20
2017-05-22T23:41:30.717Z,83.80
2017-05-22T23:43:59.078Z,83.60
2017-05-22T23:46:27.355Z,84.30
2017-05-22T23:48:55.597Z,85.10
2017-05-22T23:51:23.837Z,85.40
2017-05-22T23:53:52.168Z,86.30
2017-05-22T23:56:20.466Z,85.80
2017-05-22T23:58:48.771Z,86.00
